KMGM/MGM METAR and TAF weather

Enter ICAO airport designator
Station Type Date Time Source
KMGM METAR 2021/01/17 18:53 UTC NOAA

KMGM 171853Z 22009KT 10SM CLR 12/M01 A2998 RMK AO2 SLP153 T01171011


Station Type Date Time Source
KMGM Decoded METAR 2021/01/17 18:53 UTC NOAA

MONTGOMERY DANNELLY FIELD, AL, United States (KMGM) 32-18N 86-24W 63M
Jan 17, 2021 - 01:53 PM EST / 2021.01.17 1853 UTC
Wind: from the SW (220 degrees) at 10 MPH (9 KT):0
Visibility: 10 mile(s):0
Sky conditions: clear
Temperature: 53.1 F (11.7 C)
Dew Point: 30.0 F (-1.1 C)
Relative Humidity: 41%
Pressure (altimeter): 29.98 in. Hg (1015 hPa)
ob: KMGM 171853Z 22009KT 10SM CLR 12/M01 A2998 RMK AO2 SLP153 T01171011
cycle: 19

Station Type Date Time Source
KMGM TAF 2021/01/17 18:27 UTC NOAA

TAF KMGM 171725Z 1718/1818 25010G20KT P6SM SCT150
FM180100 26006KT P6SM SCT150
FM180500 27004KT P6SM FEW200

Example: see airport list